KLAA

Lamar Municipal Airport

Lamar, Colorado, USA

KLAA 110853Z AUTO 23006KT 10SM CLR M04/M17 A3027 RMK AO2 SLP245 T10441172 58007

Observed Flight Rules
Dec-11 @ 08:53 UTC (21 minutes ago) Visual Flight Rules
Wind Visibility Clouds
230° at 6 knots 10 miles
  • Clear skies
Temperatures Readings
Current -4°C / 25°F
Dewpoint -17°C / 1°F
Humidity 36%
Altimeter 30.27" Hg
Pressure 1024.5 hPa
Elevation 1119
Observed Flight Rules
Dec-11 @ 08:53 UTC
(21 minutes ago)
VFR
Wind Visibility
230° at 6 knots 10 miles
Clouds
  • Clear skies
Temperature Dewpoint
-4°C / 25°F -17°C / 1°F
Humidity Altimeter Pressure
36% 30.27" Hg 1024.5 hPa